createdAt,value
2022-11-28T00:02:08.833Z,101388.00
2022-11-28T00:07:02.172Z,101395.25
2022-11-28T00:11:56.640Z,101363.97
2022-11-28T00:16:50.060Z,101361.47
2022-11-28T00:21:43.908Z,101364.88
2022-11-28T00:26:40.145Z,101359.53
2022-11-28T00:31:53.079Z,101386.44
2022-11-28T00:36:48.509Z,101375.13
2022-11-28T00:41:42.357Z,101362.75
2022-11-28T00:46:35.409Z,101383.06
2022-11-28T00:51:31.744Z,101355.25
2022-11-28T00:56:28.469Z,101378.56
2022-11-28T01:01:22.957Z,101365.22
2022-11-28T01:06:23.398Z,101354.81
2022-11-28T01:11:16.799Z,101350.22
2022-11-28T01:16:10.803Z,101359.78
2022-11-28T01:21:04.776Z,101339.66
2022-11-28T01:25:58.016Z,101328.38
2022-11-28T01:30:51.858Z,101342.31
2022-11-28T01:35:55.491Z,101289.47
2022-11-28T01:40:50.329Z,101309.25
2022-11-28T01:45:43.549Z,101328.13
2022-11-28T01:50:38.126Z,101329.06
2022-11-28T01:55:36.705Z,101306.25
2022-11-28T02:00:30.475Z,101302.66
2022-11-28T02:05:24.260Z,101292.16
2022-11-28T02:10:22.752Z,101296.56
2022-11-28T02:15:21.083Z,101297.50
2022-11-28T02:20:38.681Z,101283.41
2022-11-28T02:26:19.820Z,101280.34
2022-11-28T02:31:28.425Z,101302.03
2022-11-28T02:36:28.546Z,101271.78
2022-11-28T02:41:40.301Z,101273.84
2022-11-28T02:46:44.995Z,101250.69
2022-11-28T02:52:04.756Z,101278.25
2022-11-28T02:56:58.193Z,101266.81
2022-11-28T03:01:52.690Z,101241.50
2022-11-28T03:07:01.518Z,101275.69
2022-11-28T03:12:15.423Z,101268.78
2022-11-28T03:17:41.857Z,101267.75
2022-11-28T03:22:53.261Z,101257.31
2022-11-28T03:27:53.947Z,101250.38
2022-11-28T03:32:52.498Z,101224.34
2022-11-28T03:37:51.954Z,101220.59
2022-11-28T03:42:54.340Z,101237.00
2022-11-28T03:47:54.490Z,101237.00
2022-11-28T03:52:54.741Z,101221.09
2022-11-28T03:58:12.427Z,101228.25
2022-11-28T04:03:51.150Z,101228.25
2022-11-28T04:08:51.802Z,101227.47
2022-11-28T04:14:12.845Z,101232.69
2022-11-28T04:19:15.028Z,101229.28
2022-11-28T04:24:13.592Z,101239.00
2022-11-28T04:29:10.962Z,101223.09
2022-11-28T04:34:08.621Z,101187.97
2022-11-28T04:39:03.617Z,101206.97
2022-11-28T04:44:09.038Z,101210.47
2022-11-28T04:49:06.214Z,101237.22
2022-11-28T04:54:11.136Z,101206.09
2022-11-28T04:59:08.290Z,101217.91
2022-11-28T05:04:01.510Z,101214.31
2022-11-28T05:08:55.153Z,101208.13
2022-11-28T05:13:49.174Z,101207.34
2022-11-28T05:18:43.434Z,101187.50
2022-11-28T05:23:41.781Z,101174.34
2022-11-28T05:28:35.185Z,101193.38
2022-11-28T05:33:31.419Z,101210.88
2022-11-28T05:38:25.334Z,101198.56
2022-11-28T05:43:19.350Z,101170.94
2022-11-28T05:48:13.241Z,101192.34
2022-11-28T05:53:08.063Z,101168.28
2022-11-28T05:58:02.416Z,101190.63
2022-11-28T06:03:01.023Z,101177.16
2022-11-28T06:07:55.067Z,101189.84
2022-11-28T06:12:49.447Z,101183.59
2022-11-28T06:17:43.318Z,101178.31
2022-11-28T06:22:36.755Z,101160.16
2022-11-28T06:27:29.825Z,101159.09
2022-11-28T06:32:23.788Z,101153.78
2022-11-28T06:37:17.860Z,101153.53
2022-11-28T06:42:11.999Z,101133.06
2022-11-28T06:47:06.674Z,101145.13
2022-11-28T06:52:00.318Z,101126.38
2022-11-28T06:56:53.592Z,101080.75
2022-11-28T07:01:47.117Z,101115.97
2022-11-28T07:06:40.531Z,101118.50
2022-11-28T07:11:33.728Z,101104.44
2022-11-28T07:16:30.373Z,101086.06
2022-11-28T07:21:23.793Z,101075.53
2022-11-28T07:26:20.410Z,101110.00
2022-11-28T07:31:39.379Z,101111.72
2022-11-28T07:36:33.515Z,101114.31
2022-11-28T07:41:27.713Z,101120.47
2022-11-28T07:46:21.321Z,101067.03
2022-11-28T07:51:21.654Z,101094.53
2022-11-28T07:56:19.666Z,101112.44
2022-11-28T08:01:34.054Z,101109.78
2022-11-28T08:06:30.094Z,101120.31
2022-11-28T08:11:25.238Z,101104.13
2022-11-28T08:16:21.309Z,101106.75
2022-11-28T08:21:20.178Z,101114.38
2022-11-28T08:26:18.349Z,101114.13
2022-11-28T08:31:18.245Z,101128.25
2022-11-28T08:36:13.410Z,101110.34
2022-11-28T08:41:12.987Z,101150.38
2022-11-28T08:46:07.660Z,101123.34
2022-11-28T08:51:01.429Z,101131.75
2022-11-28T08:55:58.802Z,101100.59
2022-11-28T09:00:52.118Z,101116.88
2022-11-28T09:05:47.060Z,101100.53
2022-11-28T09:10:40.941Z,101110.75
2022-11-28T09:15:35.069Z,101093.84
2022-11-28T09:20:27.629Z,101092.91
2022-11-28T09:25:20.528Z,101079.72
2022-11-28T09:30:13.989Z,101096.47
2022-11-28T09:35:08.302Z,101065.09
2022-11-28T09:40:12.980Z,101084.19
2022-11-28T09:45:14.151Z,101086.69
2022-11-28T09:50:17.475Z,101096.47
2022-11-28T09:55:42.517Z,101092.81
2022-11-28T10:00:56.922Z,101099.91
2022-11-28T10:05:54.362Z,101073.81
2022-11-28T10:10:51.216Z,101072.66
2022-11-28T10:16:12.218Z,101072.66
2022-11-28T10:21:32.210Z,101063.78
2022-11-28T10:26:37.052Z,101073.50
2022-11-28T10:31:42.834Z,101063.84
2022-11-28T10:36:47.011Z,101073.69
2022-11-28T10:42:13.880Z,101040.88
2022-11-28T10:47:23.789Z,101032.06
2022-11-28T10:52:30.529Z,101010.59
2022-11-28T10:57:47.318Z,101036.44
2022-11-28T11:02:52.349Z,101047.03
2022-11-28T11:08:00.854Z,101056.78
2022-11-28T11:12:54.266Z,101026.31
2022-11-28T11:17:47.885Z,101030.34
2022-11-28T11:22:43.051Z,101038.03
2022-11-28T11:27:38.459Z,100990.78
2022-11-28T11:32:32.143Z,101026.41
2022-11-28T11:37:39.085Z,101027.31
2022-11-28T11:42:33.457Z,100980.06
2022-11-28T11:47:48.030Z,100966.91
2022-11-28T11:52:41.757Z,100972.75
2022-11-28T11:58:00.507Z,100945.88
2022-11-28T12:02:56.032Z,100964.66
2022-11-28T12:08:08.140Z,100947.88
2022-11-28T12:13:02.803Z,100948.91
2022-11-28T12:18:13.746Z,100914.31
2022-11-28T12:23:17.552Z,100928.66
2022-11-28T12:28:43.108Z,100930.38
2022-11-28T12:34:03.356Z,100940.97
2022-11-28T12:39:25.312Z,100934.06
2022-11-28T12:44:47.791Z,100923.84
2022-11-28T12:50:01.307Z,100928.47
2022-11-28T12:55:20.619Z,100919.41
2022-11-28T13:00:23.151Z,100901.38
2022-11-28T13:05:26.675Z,100914.91
2022-11-28T13:10:38.735Z,100918.44
2022-11-28T13:16:01.152Z,100883.75
2022-11-28T13:21:04.847Z,100872.22
2022-11-28T13:26:08.985Z,100870.31
2022-11-28T13:31:15.484Z,100891.94
2022-11-28T13:38:35.076Z,100882.81
2022-11-28T13:42:14.300Z,100884.34
2022-11-28T13:46:57.541Z,100839.69
2022-11-28T13:52:19.150Z,100862.91
2022-11-28T13:57:16.753Z,100855.22
2022-11-28T14:02:30.520Z,100857.09
2022-11-28T14:07:32.752Z,100855.47
2022-11-28T14:12:36.883Z,100870.44
2022-11-28T14:17:55.535Z,100869.41
2022-11-28T14:23:34.385Z,100873.50
2022-11-28T14:28:33.834Z,100876.81
2022-11-28T14:33:38.671Z,100857.09
2022-11-28T14:38:31.344Z,100881.97
2022-11-28T14:43:32.447Z,100878.53
2022-11-28T14:48:29.673Z,100874.09
2022-11-28T14:53:45.590Z,100892.44
2022-11-28T14:58:39.677Z,100894.25
2022-11-28T15:03:44.082Z,100890.25
2022-11-28T15:09:02.960Z,100890.41
2022-11-28T15:14:17.076Z,100896.41
2022-11-28T15:19:32.069Z,100890.06
2022-11-28T15:24:39.148Z,100860.09
2022-11-28T15:29:32.686Z,100862.13
2022-11-28T15:34:31.427Z,100894.09
2022-11-28T15:39:40.410Z,100854.28
2022-11-28T15:44:37.003Z,100895.03
2022-11-28T15:49:33.303Z,100864.88
2022-11-28T15:54:36.491Z,100890.59
2022-11-28T15:59:31.305Z,100875.72
2022-11-28T16:04:25.017Z,100889.06
2022-11-28T16:09:18.453Z,100873.84
2022-11-28T16:14:45.062Z,100884.59
2022-11-28T16:19:38.725Z,100862.38
2022-11-28T16:24:43.445Z,100870.16
2022-11-28T16:29:37.458Z,100879.56
2022-11-28T16:35:06.168Z,100884.69
2022-11-28T16:40:07.982Z,100883.84
2022-11-28T16:45:19.666Z,100898.00
2022-11-28T16:50:41.019Z,100881.19
2022-11-28T16:55:34.605Z,100876.75
2022-11-28T17:00:28.179Z,100863.25
2022-11-28T17:05:22.495Z,100846.06
2022-11-28T17:10:16.216Z,100847.38
2022-11-28T17:15:23.754Z,100878.47
2022-11-28T17:20:18.492Z,100874.00
2022-11-28T17:25:21.522Z,100844.47
2022-11-28T17:30:19.712Z,100853.19
2022-11-28T17:35:29.170Z,100870.28
2022-11-28T17:40:38.371Z,100877.00
2022-11-28T17:45:35.176Z,100842.06
2022-11-28T17:50:28.643Z,100860.41
2022-11-28T17:55:22.291Z,100882.22
2022-11-28T18:00:16.238Z,100851.28
2022-11-28T18:05:10.708Z,100871.78
2022-11-28T18:10:05.767Z,100866.41
2022-11-28T18:15:01.884Z,100848.63
2022-11-28T18:19:57.738Z,100865.56
2022-11-28T18:24:51.738Z,100848.41
2022-11-28T18:29:45.181Z,100872.19
2022-11-28T18:34:39.472Z,100853.44
2022-11-28T18:39:33.892Z,100867.69
2022-11-28T18:44:27.241Z,100876.41
2022-11-28T18:49:21.135Z,100865.97
2022-11-28T18:54:20.545Z,100867.69
2022-11-28T18:59:14.720Z,100863.16
2022-11-28T19:04:10.713Z,100854.69
2022-11-28T19:09:08.527Z,100850.84
2022-11-28T19:14:01.839Z,100847.09
2022-11-28T19:18:54.913Z,100857.00
2022-11-28T19:23:49.340Z,100858.47
2022-11-28T19:28:43.982Z,100866.97
2022-11-28T19:33:37.806Z,100826.69
2022-11-28T19:38:31.804Z,100868.34
2022-11-28T19:43:29.361Z,100863.69
2022-11-28T19:48:23.546Z,100860.22
2022-11-28T19:53:19.169Z,100837.06
2022-11-28T19:58:13.666Z,100851.69
2022-11-28T20:03:07.387Z,100852.03
2022-11-28T20:08:00.768Z,100858.38
2022-11-28T20:12:54.798Z,100848.38
2022-11-28T20:17:49.150Z,100873.38
2022-11-28T20:22:42.361Z,100872.66
2022-11-28T20:27:35.415Z,100858.25
2022-11-28T20:32:28.220Z,100847.25
2022-11-28T20:37:21.846Z,100832.22
2022-11-28T20:42:17.418Z,100832.81
2022-11-28T20:47:11.759Z,100859.44
2022-11-28T20:52:06.578Z,100863.03
2022-11-28T21:02:14.132Z,100855.00
2022-11-28T21:07:08.223Z,100855.00
2022-11-28T21:12:01.953Z,100832.47
2022-11-28T21:16:56.258Z,100847.88
2022-11-28T21:21:50.037Z,100854.69
2022-11-28T21:26:48.141Z,100845.03
2022-11-28T21:31:45.151Z,100837.34
2022-11-28T21:36:39.346Z,100829.56
2022-11-28T21:41:33.453Z,100834.63
2022-11-28T21:46:28.370Z,100831.78
2022-11-28T21:51:24.470Z,100814.69
2022-11-28T21:56:20.092Z,100810.44
2022-11-28T22:01:14.815Z,100794.41
2022-11-28T22:06:28.901Z,100827.34
2022-11-28T22:11:22.808Z,100818.28
2022-11-28T22:16:25.958Z,100820.50
2022-11-28T22:26:37.982Z,100803.84
2022-11-28T22:31:31.774Z,100824.22
2022-11-28T22:36:26.385Z,100820.84
2022-11-28T22:41:28.362Z,100820.91
2022-11-28T22:46:22.484Z,100819.47
2022-11-28T22:51:21.732Z,100813.59
2022-11-28T22:56:16.029Z,100829.22
2022-11-28T23:01:10.451Z,100803.53
2022-11-28T23:06:11.517Z,100802.84
2022-11-28T23:11:06.387Z,100822.38
2022-11-28T23:16:29.014Z,100778.28
2022-11-28T23:21:23.902Z,100792.69
2022-11-28T23:26:20.697Z,100802.16
2022-11-28T23:31:17.883Z,100815.91
2022-11-28T23:36:41.797Z,100801.94
2022-11-28T23:41:35.858Z,100779.06
2022-11-28T23:46:29.633Z,100805.56
2022-11-28T23:51:24.798Z,100801.31
2022-11-28T23:56:42.946Z,100801.31
